sensor_id;sensor_type;location;lat;lon;timestamp;pressure;altitude;pressure_sealevel;temperature;humidity
66762;BME280;53672;48.176;16.338;2022-10-16T00:03:02;99384.56;;;11.65;100.00
66762;BME280;53672;48.176;16.338;2022-10-16T00:08:02;99394.03;;;11.63;100.00
66762;BME280;53672;48.176;16.338;2022-10-16T00:13:03;99392.47;;;11.57;100.00
66762;BME280;53672;48.176;16.338;2022-10-16T00:18:05;99394.44;;;11.46;100.00
66762;BME280;53672;48.176;16.338;2022-10-16T00:23:05;99398.53;;;11.34;100.00
66762;BME280;53672;48.176;16.338;2022-10-16T00:28:06;99391.00;;;11.31;100.00
66762;BME280;53672;48.176;16.338;2022-10-16T00:33:08;99391.75;;;11.41;100.00
66762;BME280;53672;48.176;16.338;2022-10-16T00:38:08;99394.13;;;11.48;100.00
66762;BME280;53672;48.176;16.338;2022-10-16T00:43:33;99400.31;;;11.53;100.00
66762;BME280;53672;48.176;16.338;2022-10-16T00:48:36;99404.34;;;11.56;100.00
66762;BME280;53672;48.176;16.338;2022-10-16T00:53:36;99406.81;;;11.47;100.00
66762;BME280;53672;48.176;16.338;2022-10-16T00:58:37;99409.56;;;11.42;100.00
66762;BME280;53672;48.176;16.338;2022-10-16T01:03:39;99416.28;;;11.45;100.00
66762;BME280;53672;48.176;16.338;2022-10-16T01:08:45;99408.72;;;11.47;100.00
66762;BME280;53672;48.176;16.338;2022-10-16T01:13:53;99407.41;;;11.39;100.00
66762;BME280;53672;48.176;16.338;2022-10-16T01:18:58;99406.69;;;11.24;100.00
66762;BME280;53672;48.176;16.338;2022-10-16T01:24:07;99402.34;;;11.28;100.00
66762;BME280;53672;48.176;16.338;2022-10-16T01:29:16;99414.25;;;11.22;100.00
66762;BME280;53672;48.176;16.338;2022-10-16T01:34:24;99411.81;;;11.20;100.00
66762;BME280;53672;48.176;16.338;2022-10-16T01:39:29;99402.94;;;11.19;100.00
66762;BME280;53672;48.176;16.338;2022-10-16T01:44:34;99405.66;;;11.19;100.00
66762;BME280;53672;48.176;16.338;2022-10-16T01:49:38;99409.41;;;11.18;100.00
66762;BME280;53672;48.176;16.338;2022-10-16T01:54:42;99410.75;;;11.21;100.00
66762;BME280;53672;48.176;16.338;2022-10-16T01:59:46;99411.28;;;11.23;100.00
66762;BME280;53672;48.176;16.338;2022-10-16T02:04:51;99406.97;;;11.22;100.00
66762;BME280;53672;48.176;16.338;2022-10-16T02:09:53;99413.69;;;11.25;100.00
66762;BME280;53672;48.176;16.338;2022-10-16T02:14:55;99414.00;;;11.18;100.00
66762;BME280;53672;48.176;16.338;2022-10-16T02:19:57;99412.13;;;11.13;100.00
66762;BME280;53672;48.176;16.338;2022-10-16T02:25:02;99428.56;;;11.17;100.00
66762;BME280;53672;48.176;16.338;2022-10-16T02:30:08;99430.44;;;11.16;100.00
66762;BME280;53672;48.176;16.338;2022-10-16T02:35:15;99423.47;;;11.10;100.00
66762;BME280;53672;48.176;16.338;2022-10-16T02:40:17;99422.44;;;11.01;100.00
66762;BME280;53672;48.176;16.338;2022-10-16T02:45:20;99436.50;;;10.88;100.00
66762;BME280;53672;48.176;16.338;2022-10-16T02:50:21;99431.69;;;10.80;100.00
66762;BME280;53672;48.176;16.338;2022-10-16T02:55:21;99432.22;;;10.77;100.00
66762;BME280;53672;48.176;16.338;2022-10-16T03:00:23;99437.09;;;10.75;100.00
66762;BME280;53672;48.176;16.338;2022-10-16T03:05:24;99428.47;;;10.78;100.00
66762;BME280;53672;48.176;16.338;2022-10-16T03:10:24;99422.00;;;10.74;100.00
66762;BME280;53672;48.176;16.338;2022-10-16T03:15:26;99431.44;;;10.72;100.00
66762;BME280;53672;48.176;16.338;2022-10-16T03:20:27;99442.50;;;10.70;100.00
66762;BME280;53672;48.176;16.338;2022-10-16T03:25:27;99450.56;;;10.70;100.00
66762;BME280;53672;48.176;16.338;2022-10-16T03:30:29;99440.59;;;10.71;100.00
66762;BME280;53672;48.176;16.338;2022-10-16T03:35:29;99451.13;;;10.62;100.00
66762;BME280;53672;48.176;16.338;2022-10-16T03:40:30;99454.91;;;10.56;100.00
66762;BME280;53672;48.176;16.338;2022-10-16T03:45:32;99457.34;;;10.47;100.00
66762;BME280;53672;48.176;16.338;2022-10-16T03:50:32;99468.13;;;10.42;100.00
66762;BME280;53672;48.176;16.338;2022-10-16T03:55:33;99478.13;;;10.37;100.00
66762;BME280;53672;48.176;16.338;2022-10-16T04:00:40;99476.50;;;10.31;100.00
66762;BME280;53672;48.176;16.338;2022-10-16T04:05:40;99488.91;;;10.27;100.00
66762;BME280;53672;48.176;16.338;2022-10-16T04:10:42;99478.66;;;10.24;100.00
66762;BME280;53672;48.176;16.338;2022-10-16T04:15:45;99473.28;;;10.24;100.00
66762;BME280;53672;48.176;16.338;2022-10-16T04:20:46;99474.06;;;10.24;100.00
66762;BME280;53672;48.176;16.338;2022-10-16T04:25:46;99481.31;;;10.08;100.00
66762;BME280;53672;48.176;16.338;2022-10-16T04:30:48;99483.19;;;10.13;100.00
66762;BME280;53672;48.176;16.338;2022-10-16T04:35:56;99485.09;;;10.17;100.00
66762;BME280;53672;48.176;16.338;2022-10-16T04:40:56;99480.28;;;10.20;100.00
66762;BME280;53672;48.176;16.338;2022-10-16T04:45:58;99477.84;;;10.18;100.00
66762;BME280;53672;48.176;16.338;2022-10-16T04:50:59;99479.72;;;10.23;100.00
66762;BME280;53672;48.176;16.338;2022-10-16T04:55:59;99498.03;;;10.26;100.00
66762;BME280;53672;48.176;16.338;2022-10-16T05:01:01;99501.53;;;10.21;100.00
66762;BME280;53672;48.176;16.338;2022-10-16T05:06:01;99507.72;;;10.22;100.00
66762;BME280;53672;48.176;16.338;2022-10-16T05:11:02;99504.78;;;10.23;100.00
66762;BME280;53672;48.176;16.338;2022-10-16T05:16:04;99505.28;;;10.10;100.00
66762;BME280;53672;48.176;16.338;2022-10-16T05:21:05;99513.06;;;10.11;100.00
66762;BME280;53672;48.176;16.338;2022-10-16T05:26:06;99526.28;;;10.08;100.00
66762;BME280;53672;48.176;16.338;2022-10-16T05:31:08;99531.09;;;10.01;100.00
66762;BME280;53672;48.176;16.338;2022-10-16T05:36:10;99527.34;;;10.07;100.00
66762;BME280;53672;48.176;16.338;2022-10-16T05:41:10;99528.44;;;10.11;100.00
66762;BME280;53672;48.176;16.338;2022-10-16T05:46:12;99532.75;;;10.12;100.00
66762;BME280;53672;48.176;16.338;2022-10-16T05:51:14;99546.25;;;10.22;100.00
66762;BME280;53672;48.176;16.338;2022-10-16T05:56:15;99555.16;;;10.33;100.00
66762;BME280;53672;48.176;16.338;2022-10-16T06:01:18;99565.94;;;10.38;100.00
66762;BME280;53672;48.176;16.338;2022-10-16T06:06:20;99571.31;;;10.38;100.00
66762;BME280;53672;48.176;16.338;2022-10-16T06:11:24;99581.03;;;10.34;100.00
66762;BME280;53672;48.176;16.338;2022-10-16T06:16:26;99581.59;;;10.41;100.00
66762;BME280;53672;48.176;16.338;2022-10-16T06:21:28;99581.03;;;10.59;100.00
66762;BME280;53672;48.176;16.338;2022-10-16T06:26:30;99603.16;;;10.66;100.00
66762;BME280;53672;48.176;16.338;2022-10-16T06:31:32;99610.72;;;10.74;100.00
66762;BME280;53672;48.176;16.338;2022-10-16T06:36:32;99615.03;;;10.75;100.00
66762;BME280;53672;48.176;16.338;2022-10-16T06:41:33;99616.09;;;10.79;100.00
66762;BME280;53672;48.176;16.338;2022-10-16T06:46:35;99622.03;;;10.91;100.00
66762;BME280;53672;48.176;16.338;2022-10-16T06:51:36;99623.38;;;10.74;100.00
66762;BME280;53672;48.176;16.338;2022-10-16T06:56:36;99632.28;;;10.64;100.00
66762;BME280;53672;48.176;16.338;2022-10-16T07:01:38;99655.69;;;10.58;100.00
66762;BME280;53672;48.176;16.338;2022-10-16T07:06:39;99665.16;;;10.66;100.00
66762;BME280;53672;48.176;16.338;2022-10-16T07:11:40;99662.19;;;10.83;100.00
66762;BME280;53672;48.176;16.338;2022-10-16T07:16:42;99650.34;;;10.94;100.00
66762;BME280;53672;48.176;16.338;2022-10-16T07:21:43;99663.56;;;11.05;100.00
66762;BME280;53672;48.176;16.338;2022-10-16T07:26:45;99676.22;;;11.20;100.00
66762;BME280;53672;48.176;16.338;2022-10-16T07:31:48;99664.63;;;11.30;100.00
66762;BME280;53672;48.176;16.338;2022-10-16T07:36:49;99666.53;;;11.14;100.00
66762;BME280;53672;48.176;16.338;2022-10-16T07:41:49;99670.56;;;11.16;100.00
66762;BME280;53672;48.176;16.338;2022-10-16T07:46:51;99666.50;;;11.39;100.00
66762;BME280;53672;48.176;16.338;2022-10-16T07:51:51;99676.75;;;11.27;100.00
66762;BME280;53672;48.176;16.338;2022-10-16T07:56:52;99684.59;;;11.18;100.00
66762;BME280;53672;48.176;16.338;2022-10-16T08:01:54;99683.81;;;11.23;100.00
66762;BME280;53672;48.176;16.338;2022-10-16T08:06:54;99691.06;;;11.33;100.00
66762;BME280;53672;48.176;16.338;2022-10-16T08:11:55;99700.25;;;11.47;100.00
66762;BME280;53672;48.176;16.338;2022-10-16T08:16:56;99709.13;;;11.47;100.00
66762;BME280;53672;48.176;16.338;2022-10-16T08:21:57;99705.34;;;11.58;100.00
66762;BME280;53672;48.176;16.338;2022-10-16T08:26:58;99706.69;;;11.66;100.00
66762;BME280;53672;48.176;16.338;2022-10-16T08:32:00;99711.81;;;11.62;100.00
66762;BME280;53672;48.176;16.338;2022-10-16T08:37:00;99715.31;;;11.88;100.00
66762;BME280;53672;48.176;16.338;2022-10-16T08:42:19;99718.53;;;11.90;100.00
66762;BME280;53672;48.176;16.338;2022-10-16T08:47:34;99720.66;;;12.08;100.00
66762;BME280;53672;48.176;16.338;2022-10-16T08:52:40;99726.53;;;12.26;100.00
66762;BME280;53672;48.176;16.338;2022-10-16T08:57:41;99726.50;;;12.36;100.00
66762;BME280;53672;48.176;16.338;2022-10-16T09:02:47;99733.84;;;12.25;100.00
66762;BME280;53672;48.176;16.338;2022-10-16T09:07:57;99730.78;;;12.42;100.00
66762;BME280;53672;48.176;16.338;2022-10-16T09:13:08;99734.31;;;12.37;100.00
66762;BME280;53672;48.176;16.338;2022-10-16T09:18:19;99740.78;;;12.41;100.00
66762;BME280;53672;48.176;16.338;2022-10-16T09:23:25;99735.63;;;12.45;100.00
66762;BME280;53672;48.176;16.338;2022-10-16T09:28:26;99744.50;;;12.55;100.00
66762;BME280;53672;48.176;16.338;2022-10-16T09:33:32;99750.81;;;12.85;100.00
66762;BME280;53672;48.176;16.338;2022-10-16T09:38:35;99754.34;;;12.85;100.00
66762;BME280;53672;48.176;16.338;2022-10-16T09:43:40;99775.16;;;12.85;100.00
66762;BME280;53672;48.176;16.338;2022-10-16T09:48:47;99775.78;;;12.77;100.00
66762;BME280;53672;48.176;16.338;2022-10-16T09:53:48;99775.16;;;12.90;100.00
66762;BME280;53672;48.176;16.338;2022-10-16T09:58:50;99766.34;;;12.69;100.00
66762;BME280;53672;48.176;16.338;2022-10-16T10:03:55;99768.38;;;12.92;100.00
66762;BME280;53672;48.176;16.338;2022-10-16T10:08:59;99775.31;;;12.54;100.00
66762;BME280;53672;48.176;16.338;2022-10-16T10:14:04;99779.63;;;12.60;100.00
66762;BME280;53672;48.176;16.338;2022-10-16T10:19:14;99781.84;;;12.53;100.00
66762;BME280;53672;48.176;16.338;2022-10-16T10:24:16;99783.19;;;12.51;100.00
66762;BME280;53672;48.176;16.338;2022-10-16T10:29:27;99778.88;;;12.50;100.00
66762;BME280;53672;48.176;16.338;2022-10-16T10:34:48;99797.97;;;12.74;100.00
66762;BME280;53672;48.176;16.338;2022-10-16T10:39:56;99790.25;;;12.96;100.00
66762;BME280;53672;48.176;16.338;2022-10-16T10:45:13;99778.53;;;13.15;100.00
66762;BME280;53672;48.176;16.338;2022-10-16T10:50:23;99775.16;;;13.34;100.00
66762;BME280;53672;48.176;16.338;2022-10-16T10:55:31;99769.81;;;13.57;100.00
66762;BME280;53672;48.176;16.338;2022-10-16T11:00:45;99770.09;;;13.85;100.00
66762;BME280;53672;48.176;16.338;2022-10-16T11:05:54;99772.63;;;14.05;100.00
66762;BME280;53672;48.176;16.338;2022-10-16T11:10:58;99761.25;;;14.27;100.00
66762;BME280;53672;48.176;16.338;2022-10-16T11:16:02;99757.59;;;14.41;100.00
66762;BME280;53672;48.176;16.338;2022-10-16T11:21:08;99748.66;;;14.59;100.00
66762;BME280;53672;48.176;16.338;2022-10-16T11:26:14;99753.19;;;14.69;100.00
66762;BME280;53672;48.176;16.338;2022-10-16T11:31:21;99755.53;;;14.76;99.33
66762;BME280;53672;48.176;16.338;2022-10-16T11:36:28;99744.25;;;15.38;98.46
66762;BME280;53672;48.176;16.338;2022-10-16T11:41:34;99742.91;;;16.28;93.14
66762;BME280;53672;48.176;16.338;2022-10-16T11:46:38;99749.03;;;17.46;86.01
66762;BME280;53672;48.176;16.338;2022-10-16T11:51:46;99751.84;;;18.16;81.41
66762;BME280;53672;48.176;16.338;2022-10-16T11:56:52;99742.59;;;18.99;79.26
66762;BME280;53672;48.176;16.338;2022-10-16T12:02:03;99740.59;;;19.77;74.81
66762;BME280;53672;48.176;16.338;2022-10-16T12:07:14;99739.03;;;19.59;71.92
66762;BME280;53672;48.176;16.338;2022-10-16T12:12:25;99743.72;;;20.05;75.02
66762;BME280;53672;48.176;16.338;2022-10-16T12:17:33;99733.69;;;20.17;72.88
66762;BME280;53672;48.176;16.338;2022-10-16T12:22:36;99729.03;;;20.18;72.55
66762;BME280;53672;48.176;16.338;2022-10-16T12:27:36;99720.63;;;19.85;73.29
66762;BME280;53672;48.176;16.338;2022-10-16T12:32:38;99727.63;;;19.65;75.48
66762;BME280;53672;48.176;16.338;2022-10-16T12:37:41;99723.59;;;20.47;72.78
66762;BME280;53672;48.176;16.338;2022-10-16T12:42:41;99722.31;;;20.45;72.07
66762;BME280;53672;48.176;16.338;2022-10-16T12:47:49;99724.63;;;20.63;70.06
66762;BME280;53672;48.176;16.338;2022-10-16T12:52:52;99727.50;;;20.67;69.75
66762;BME280;53672;48.176;16.338;2022-10-16T12:58:04;99729.88;;;20.10;74.81
66762;BME280;53672;48.176;16.338;2022-10-16T13:03:33;99718.88;;;19.81;73.49
66762;BME280;53672;48.176;16.338;2022-10-16T13:08:57;99718.88;;;20.18;71.23
66762;BME280;53672;48.176;16.338;2022-10-16T13:14:20;99720.47;;;19.82;74.07
66762;BME280;53672;48.176;16.338;2022-10-16T13:19:28;99717.50;;;19.32;76.76
66762;BME280;53672;48.176;16.338;2022-10-16T13:24:42;99714.63;;;19.19;78.59
66762;BME280;53672;48.176;16.338;2022-10-16T13:29:52;99720.72;;;18.99;79.69
66762;BME280;53672;48.176;16.338;2022-10-16T13:34:53;99718.16;;;19.11;78.63
66762;BME280;53672;48.176;16.338;2022-10-16T13:40:09;99722.97;;;19.23;78.46
66762;BME280;53672;48.176;16.338;2022-10-16T13:45:18;99737.13;;;18.99;80.13
66762;BME280;53672;48.176;16.338;2022-10-16T13:50:19;99729.72;;;18.91;81.00
66762;BME280;53672;48.176;16.338;2022-10-16T13:55:21;99731.81;;;19.03;81.13
66762;BME280;53672;48.176;16.338;2022-10-16T14:00:24;99737.13;;;19.16;79.99
66762;BME280;53672;48.176;16.338;2022-10-16T14:05:25;99729.72;;;19.25;79.33
66762;BME280;53672;48.176;16.338;2022-10-16T14:10:29;99732.63;;;19.46;78.61
66762;BME280;53672;48.176;16.338;2022-10-16T14:15:31;99739.38;;;19.49;78.84
66762;BME280;53672;48.176;16.338;2022-10-16T14:20:33;99739.50;;;18.75;90.42
66762;BME280;53672;48.176;16.338;2022-10-16T14:25:36;99732.22;;;18.05;96.32
66762;BME280;53672;48.176;16.338;2022-10-16T14:30:36;99718.66;;;18.31;86.66
66762;BME280;53672;48.176;16.338;2022-10-16T14:35:39;99727.13;;;18.78;80.50
66762;BME280;53672;48.176;16.338;2022-10-16T14:40:47;99733.59;;;18.90;78.19
66762;BME280;53672;48.176;16.338;2022-10-16T14:45:52;99734.41;;;18.99;80.38
66762;BME280;53672;48.176;16.338;2022-10-16T14:50:53;99728.13;;;18.90;79.19
66762;BME280;53672;48.176;16.338;2022-10-16T14:55:55;99730.53;;;18.83;77.38
66762;BME280;53672;48.176;16.338;2022-10-16T15:00:56;99740.50;;;18.79;76.36
66762;BME280;53672;48.176;16.338;2022-10-16T15:05:56;99743.88;;;18.76;77.14
66762;BME280;53672;48.176;16.338;2022-10-16T15:10:58;99745.13;;;18.70;75.99
66762;BME280;53672;48.176;16.338;2022-10-16T15:15:58;99749.94;;;18.64;75.73
66762;BME280;53672;48.176;16.338;2022-10-16T15:20:59;99750.66;;;18.48;79.91
66762;BME280;53672;48.176;16.338;2022-10-16T15:26:01;99743.75;;;18.42;77.79
66762;BME280;53672;48.176;16.338;2022-10-16T15:31:04;99755.91;;;18.36;77.05
66762;BME280;53672;48.176;16.338;2022-10-16T15:36:05;99755.25;;;18.30;79.73
66762;BME280;53672;48.176;16.338;2022-10-16T15:41:07;99753.28;;;18.13;77.68
66762;BME280;53672;48.176;16.338;2022-10-16T15:46:11;99766.56;;;18.06;77.50
66762;BME280;53672;48.176;16.338;2022-10-16T15:51:12;99771.84;;;18.03;77.38
66762;BME280;53672;48.176;16.338;2022-10-16T15:56:14;99767.31;;;17.98;77.74
66762;BME280;53672;48.176;16.338;2022-10-16T16:01:14;99765.75;;;17.75;79.67
66762;BME280;53672;48.176;16.338;2022-10-16T16:06:15;99768.28;;;17.49;82.51
66762;BME280;53672;48.176;16.338;2022-10-16T16:11:17;99765.50;;;17.41;80.82
66762;BME280;53672;48.176;16.338;2022-10-16T16:16:18;99766.00;;;17.43;80.31
66762;BME280;53672;48.176;16.338;2022-10-16T16:21:19;99767.03;;;17.33;80.15
66762;BME280;53672;48.176;16.338;2022-10-16T16:26:24;99779.97;;;17.28;79.99
66762;BME280;53672;48.176;16.338;2022-10-16T16:31:26;99785.69;;;17.40;79.06
66762;BME280;53672;48.176;16.338;2022-10-16T16:36:27;99792.13;;;17.21;80.31
66762;BME280;53672;48.176;16.338;2022-10-16T16:41:29;99796.66;;;17.12;80.91
66762;BME280;53672;48.176;16.338;2022-10-16T16:46:31;99796.59;;;17.04;81.51
66762;BME280;53672;48.176;16.338;2022-10-16T16:51:33;99801.63;;;17.10;80.84
66762;BME280;53672;48.176;16.338;2022-10-16T16:56:35;99807.16;;;17.19;80.40
66762;BME280;53672;48.176;16.338;2022-10-16T17:01:36;99820.16;;;17.22;80.38
66762;BME280;53672;48.176;16.338;2022-10-16T17:06:38;99819.59;;;17.11;81.16
66762;BME280;53672;48.176;16.338;2022-10-16T17:11:41;99828.88;;;17.10;81.28
66762;BME280;53672;48.176;16.338;2022-10-16T17:16:42;99836.34;;;17.05;81.36
66762;BME280;53672;48.176;16.338;2022-10-16T17:21:43;99842.22;;;16.98;82.07
66762;BME280;53672;48.176;16.338;2022-10-16T17:26:45;99845.66;;;16.90;84.33
66762;BME280;53672;48.176;16.338;2022-10-16T17:31:46;99840.19;;;16.90;82.76
66762;BME280;53672;48.176;16.338;2022-10-16T17:36:50;99847.06;;;16.88;82.54
66762;BME280;53672;48.176;16.338;2022-10-16T17:41:52;99846.97;;;16.79;82.84
66762;BME280;53672;48.176;16.338;2022-10-16T17:46:53;99860.38;;;16.76;83.09
66762;BME280;53672;48.176;16.338;2022-10-16T17:51:54;99851.50;;;16.70;84.19
66762;BME280;53672;48.176;16.338;2022-10-16T17:56:57;99857.00;;;16.51;84.71
66762;BME280;53672;48.176;16.338;2022-10-16T18:01:58;99855.69;;;16.49;84.79
66762;BME280;53672;48.176;16.338;2022-10-16T18:06:59;99856.09;;;16.42;85.06
66762;BME280;53672;48.176;16.338;2022-10-16T18:12:01;99867.97;;;16.33;85.63
66762;BME280;53672;48.176;16.338;2022-10-16T18:17:02;99870.50;;;16.29;86.32
66762;BME280;53672;48.176;16.338;2022-10-16T18:22:03;99879.13;;;16.17;86.97
66762;BME280;53672;48.176;16.338;2022-10-16T18:27:06;99873.63;;;16.36;85.06
66762;BME280;53672;48.176;16.338;2022-10-16T18:32:07;99877.00;;;16.14;87.49
66762;BME280;53672;48.176;16.338;2022-10-16T18:37:07;99880.72;;;16.05;88.58
66762;BME280;53672;48.176;16.338;2022-10-16T18:42:10;99886.38;;;16.08;86.51
66762;BME280;53672;48.176;16.338;2022-10-16T18:47:12;99886.44;;;16.03;87.13
66762;BME280;53672;48.176;16.338;2022-10-16T18:52:13;99895.78;;;15.97;86.99
66762;BME280;53672;48.176;16.338;2022-10-16T18:57:16;99897.25;;;15.90;89.92
66762;BME280;53672;48.176;16.338;2022-10-16T19:02:17;99889.50;;;15.83;87.42
66762;BME280;53672;48.176;16.338;2022-10-16T19:07:18;99907.03;;;15.72;88.20
66762;BME280;53672;48.176;16.338;2022-10-16T19:12:21;99913.22;;;15.59;89.03
66762;BME280;53672;48.176;16.338;2022-10-16T19:17:22;99920.75;;;15.43;90.14
66762;BME280;53672;48.176;16.338;2022-10-16T19:22:23;99930.22;;;15.46;89.89
66762;BME280;53672;48.176;16.338;2022-10-16T19:27:27;99930.00;;;15.42;89.85
66762;BME280;53672;48.176;16.338;2022-10-16T19:32:27;99939.38;;;15.31;90.94
66762;BME280;53672;48.176;16.338;2022-10-16T19:37:28;99952.50;;;15.24;91.16
66762;BME280;53672;48.176;16.338;2022-10-16T19:42:31;99959.34;;;15.21;91.30
66762;BME280;53672;48.176;16.338;2022-10-16T19:47:32;99961.38;;;15.11;91.98
66762;BME280;53672;48.176;16.338;2022-10-16T19:52:32;99968.06;;;14.95;93.35
66762;BME280;53672;48.176;16.338;2022-10-16T19:57:34;99977.19;;;14.80;94.98
66762;BME280;53672;48.176;16.338;2022-10-16T20:02:35;99984.69;;;14.64;96.93
66762;BME280;53672;48.176;16.338;2022-10-16T20:07:36;99984.56;;;14.46;97.75
66762;BME280;53672;48.176;16.338;2022-10-16T20:12:38;99993.09;;;14.29;98.53
66762;BME280;53672;48.176;16.338;2022-10-16T20:17:39;99999.16;;;14.16;99.82
66762;BME280;53672;48.176;16.338;2022-10-16T20:22:39;100001.88;;;14.11;100.00
66762;BME280;53672;48.176;16.338;2022-10-16T20:27:41;99990.59;;;13.99;100.00
66762;BME280;53672;48.176;16.338;2022-10-16T20:32:41;100003.69;;;13.87;100.00
66762;BME280;53672;48.176;16.338;2022-10-16T20:37:42;100008.63;;;13.75;100.00
66762;BME280;53672;48.176;16.338;2022-10-16T20:42:44;100007.06;;;13.63;100.00
66762;BME280;53672;48.176;16.338;2022-10-16T20:47:45;100006.84;;;13.55;100.00
66762;BME280;53672;48.176;16.338;2022-10-16T20:52:45;100018.78;;;13.49;100.00
66762;BME280;53672;48.176;16.338;2022-10-16T20:57:47;100013.94;;;13.41;100.00
66762;BME280;53672;48.176;16.338;2022-10-16T21:02:49;100019.91;;;13.33;100.00
66762;BME280;53672;48.176;16.338;2022-10-16T21:07:49;100030.22;;;13.26;100.00
66762;BME280;53672;48.176;16.338;2022-10-16T21:12:53;100033.53;;;13.17;100.00
66762;BME280;53672;48.176;16.338;2022-10-16T21:17:53;100026.75;;;13.10;100.00
66762;BME280;53672;48.176;16.338;2022-10-16T21:22:54;100034.06;;;13.04;100.00
66762;BME280;53672;48.176;16.338;2022-10-16T21:27:56;100030.00;;;13.02;100.00
66762;BME280;53672;48.176;16.338;2022-10-16T21:32:56;100031.34;;;13.04;100.00
66762;BME280;53672;48.176;16.338;2022-10-16T21:37:57;100035.41;;;13.02;100.00
66762;BME280;53672;48.176;16.338;2022-10-16T21:42:59;100035.72;;;12.90;100.00
66762;BME280;53672;48.176;16.338;2022-10-16T21:47:59;100037.88;;;12.78;100.00
66762;BME280;53672;48.176;16.338;2022-10-16T21:53:00;100036.53;;;12.65;100.00
66762;BME280;53672;48.176;16.338;2022-10-16T21:58:02;100044.13;;;12.58;100.00
66762;BME280;53672;48.176;16.338;2022-10-16T22:03:02;100046.56;;;12.50;100.00
66762;BME280;53672;48.176;16.338;2022-10-16T22:08:03;100045.22;;;12.42;100.00
66762;BME280;53672;48.176;16.338;2022-10-16T22:13:05;100051.16;;;12.39;100.00
66762;BME280;53672;48.176;16.338;2022-10-16T22:18:05;100057.63;;;12.38;100.00
66762;BME280;53672;48.176;16.338;2022-10-16T22:23:06;100051.41;;;12.28;100.00
66762;BME280;53672;48.176;16.338;2022-10-16T22:28:08;100060.03;;;12.19;100.00
66762;BME280;53672;48.176;16.338;2022-10-16T22:33:09;100065.16;;;12.11;100.00
66762;BME280;53672;48.176;16.338;2022-10-16T22:38:10;100065.72;;;12.08;100.00
66762;BME280;53672;48.176;16.338;2022-10-16T22:43:12;100061.38;;;12.02;100.00
66762;BME280;53672;48.176;16.338;2022-10-16T22:48:12;100055.94;;;11.97;100.00
66762;BME280;53672;48.176;16.338;2022-10-16T22:53:13;100060.00;;;11.99;100.00
66762;BME280;53672;48.176;16.338;2022-10-16T22:58:15;100057.84;;;12.06;100.00
66762;BME280;53672;48.176;16.338;2022-10-16T23:03:15;100052.97;;;12.03;100.00
66762;BME280;53672;48.176;16.338;2022-10-16T23:08:16;100052.16;;;12.03;100.00
66762;BME280;53672;48.176;16.338;2022-10-16T23:13:18;100050.06;;;12.30;100.00
66762;BME280;53672;48.176;16.338;2022-10-16T23:18:18;100046.28;;;12.36;100.00
66762;BME280;53672;48.176;16.338;2022-10-16T23:23:19;100061.69;;;12.51;100.00
66762;BME280;53672;48.176;16.338;2022-10-16T23:28:21;100061.72;;;12.56;100.00
66762;BME280;53672;48.176;16.338;2022-10-16T23:33:21;100057.09;;;12.66;100.00
66762;BME280;53672;48.176;16.338;2022-10-16T23:38:22;100060.09;;;12.70;100.00
66762;BME280;53672;48.176;16.338;2022-10-16T23:43:23;100066.31;;;12.81;100.00
66762;BME280;53672;48.176;16.338;2022-10-16T23:48:24;100079.84;;;12.81;100.00
66762;BME280;53672;48.176;16.338;2022-10-16T23:53:25;100084.97;;;12.67;100.00
66762;BME280;53672;48.176;16.338;2022-10-16T23:58:27;100090.63;;;12.60;100.00
